Time;durP1;ratioP1;P1;durP2;ratioP2;P2;SDS_P1;SDS_P2;PMS_P1;PMS_P2;Temp;Humidity;BMP_temperature;BMP_pressure;BME280_temperature;BME280_humidity;BME280_pressure;Samples;Min_cycle;Max_cycle;Signal;HPM_P1;HPM_P2
2021/10/23 00:00:26;;;;;;;42.42;25.92;;;;;;;;;;4860363;29;20040;-66
2021/10/23 00:02:52;;;;;;;37.60;24.92;;;;;;;;;;4860342;29;20462;-68
2021/10/23 00:05:18;;;;;;;40.50;25.92;;;;;;;;;;4860077;29;20034;-62
2021/10/23 00:07:44;;;;;;;40.70;25.75;;;;;;;;;;4859937;29;20057;-60
2021/10/23 00:10:10;;;;;;;41.40;26.85;;;;;;;;;;4859813;29;20033;-62
2021/10/23 00:12:37;;;;;;;41.75;26.00;;;;;;;;;;4860056;29;20029;-65
2021/10/23 00:15:04;;;;;;;39.65;26.20;;;;;;;;;;4843158;29;20064;-60
2021/10/23 00:17:30;;;;;;;38.63;25.80;;;;;;;;;;4859392;29;20033;-61
2021/10/23 00:20:00;;;;;;;42.60;28.00;;;;;;;;;;4859434;29;20442;-61
2021/10/23 00:22:26;;;;;;;38.50;26.58;;;;;;;;;;4842748;29;20044;-61
2021/10/23 00:24:53;;;;;;;42.22;26.73;;;;;;;;;;4860020;29;20056;-64
2021/10/23 00:27:19;;;;;;;40.55;27.27;;;;;;;;;;4859700;29;20504;-60
2021/10/23 00:29:45;;;;;;;41.92;27.08;;;;;;;;;;4859588;29;20029;-60
2021/10/23 00:32:11;;;;;;;40.90;27.88;;;;;;;;;;4859126;29;20082;-60
2021/10/23 00:34:37;;;;;;;40.30;27.27;;;;;;;;;;4859993;29;20022;-60
2021/10/23 00:37:03;;;;;;;44.58;28.70;;;;;;;;;;4859390;29;20036;-65
2021/10/23 00:39:29;;;;;;;41.60;28.35;;;;;;;;;;4859151;29;20091;-63
2021/10/23 00:41:55;;;;;;;46.28;28.80;;;;;;;;;;4859620;29;20084;-60
2021/10/23 00:44:35;;;;;;;48.53;30.40;;;;;;;;;;4842531;29;20028;-59
2021/10/23 00:47:05;;;;;;;44.78;29.40;;;;;;;;;;4859363;29;20081;-60
2021/10/23 00:49:32;;;;;;;46.33;30.98;;;;;;;;;;4859310;29;20108;-60
2021/10/23 00:51:59;;;;;;;50.05;32.13;;;;;;;;;;4858995;29;20079;-60
2021/10/23 00:54:26;;;;;;;48.55;29.85;;;;;;;;;;4841818;29;20422;-62
2021/10/23 00:56:53;;;;;;;51.70;32.97;;;;;;;;;;4859094;29;20191;-64
2021/10/23 00:59:20;;;;;;;49.03;32.42;;;;;;;;;;4858319;29;20192;-67
2021/10/23 01:01:46;;;;;;;48.25;31.67;;;;;;;;;;4859173;29;20026;-69
2021/10/23 01:04:12;;;;;;;49.00;32.17;;;;;;;;;;4858741;29;20033;-60
2021/10/23 01:06:39;;;;;;;56.90;33.47;;;;;;;;;;4842202;29;20052;-65
2021/10/23 01:09:05;;;;;;;52.40;34.50;;;;;;;;;;4858964;29;20029;-68
2021/10/23 01:11:31;;;;;;;57.10;35.10;;;;;;;;;;4858833;29;20574;-61
2021/10/23 01:13:57;;;;;;;54.95;36.13;;;;;;;;;;4858946;29;20041;-60
2021/10/23 01:16:23;;;;;;;55.92;37.25;;;;;;;;;;4858813;29;20166;-60
2021/10/23 01:18:49;;;;;;;59.30;38.10;;;;;;;;;;4859426;29;20060;-60
2021/10/23 01:21:19;;;;;;;56.80;37.40;;;;;;;;;;4859455;29;20029;-60
2021/10/23 01:23:45;;;;;;;54.03;37.90;;;;;;;;;;4858656;29;20053;-60
2021/10/23 01:26:12;;;;;;;61.33;39.47;;;;;;;;;;4858635;29;20026;-60
2021/10/23 01:28:38;;;;;;;61.33;37.92;;;;;;;;;;4858954;29;20112;-58
2021/10/23 01:31:04;;;;;;;62.10;39.15;;;;;;;;;;4858675;29;20022;-61
2021/10/23 01:33:30;;;;;;;67.97;40.83;;;;;;;;;;4858843;29;20029;-59
2021/10/23 01:36:16;;;;;;;69.93;42.58;;;;;;;;;;4858617;29;20033;-61
2021/10/23 01:38:43;;;;;;;69.50;42.80;;;;;;;;;;4841974;29;20519;-61
2021/10/23 01:41:09;;;;;;;72.32;42.88;;;;;;;;;;4858613;29;20072;-60
2021/10/23 01:43:35;;;;;;;76.07;43.15;;;;;;;;;;4859053;29;20424;-60
2021/10/23 01:46:02;;;;;;;78.57;44.75;;;;;;;;;;4858434;29;20069;-59
2021/10/23 01:48:28;;;;;;;77.55;42.80;;;;;;;;;;4858659;29;20633;-59
2021/10/23 01:50:54;;;;;;;79.85;44.83;;;;;;;;;;4858369;29;20108;-60
2021/10/23 01:53:20;;;;;;;84.38;46.70;;;;;;;;;;4858290;29;20049;-60
2021/10/23 01:55:46;;;;;;;76.25;43.72;;;;;;;;;;4841786;29;20040;-60
2021/10/23 01:58:14;;;;;;;73.57;42.85;;;;;;;;;;4858362;29;20041;-66
2021/10/23 02:00:40;;;;;;;76.35;42.63;;;;;;;;;;4858807;29;20471;-59
2021/10/23 02:03:06;;;;;;;72.05;40.58;;;;;;;;;;4843655;29;20094;-60
2021/10/23 02:05:32;;;;;;;50.85;31.45;;;;;;;;;;4860146;29;20074;-60
2021/10/23 02:07:58;;;;;;;58.20;34.97;;;;;;;;;;4858865;29;20092;-65
2021/10/23 02:10:24;;;;;;;57.20;35.33;;;;;;;;;;4859252;29;20105;-60
2021/10/23 02:12:51;;;;;;;51.97;31.20;;;;;;;;;;4862102;29;20145;-60
2021/10/23 02:15:17;;;;;;;51.85;31.58;;;;;;;;;;4861902;29;20026;-60
2021/10/23 02:17:43;;;;;;;50.35;30.90;;;;;;;;;;4862179;29;20089;-60
2021/10/23 02:20:10;;;;;;;47.80;28.60;;;;;;;;;;4861926;29;20482;-60
2021/10/23 02:22:37;;;;;;;48.83;28.23;;;;;;;;;;4861700;29;20105;-60
2021/10/23 02:25:04;;;;;;;40.97;25.25;;;;;;;;;;4861690;29;20479;-60
2021/10/23 02:27:30;;;;;;;38.30;23.20;;;;;;;;;;4861806;29;20428;-60
2021/10/23 02:29:56;;;;;;;37.25;24.42;;;;;;;;;;4861788;29;20037;-69
2021/10/23 02:32:22;;;;;;;32.33;20.73;;;;;;;;;;4861758;29;20042;-60
2021/10/23 02:34:48;;;;;;;32.00;19.77;;;;;;;;;;4844485;29;20026;-60
2021/10/23 02:37:14;;;;;;;33.90;21.25;;;;;;;;;;4861629;29;20033;-60
2021/10/23 02:39:40;;;;;;;38.75;23.70;;;;;;;;;;4861883;29;20026;-60
2021/10/23 02:42:07;;;;;;;35.50;22.20;;;;;;;;;;4861916;29;20029;-64
2021/10/23 02:44:33;;;;;;;40.85;24.92;;;;;;;;;;4861973;29;20029;-65
2021/10/23 02:46:59;;;;;;;39.08;23.80;;;;;;;;;;4861597;29;20029;-60
2021/10/23 02:49:25;;;;;;;47.30;26.45;;;;;;;;;;4861106;29;20112;-68
2021/10/23 02:51:51;;;;;;;47.03;27.85;;;;;;;;;;4861573;29;20048;-60
2021/10/23 02:54:18;;;;;;;46.15;26.35;;;;;;;;;;4861653;29;20040;-59
2021/10/23 02:56:44;;;;;;;61.35;32.67;;;;;;;;;;4861700;29;20044;-59
2021/10/23 02:59:10;;;;;;;58.88;32.28;;;;;;;;;;4860929;29;20033;-60
2021/10/23 03:01:36;;;;;;;60.85;33.55;;;;;;;;;;4861416;29;20037;-60
2021/10/23 03:04:02;;;;;;;65.53;33.53;;;;;;;;;;4861417;29;20440;-59
2021/10/23 03:06:28;;;;;;;65.47;34.45;;;;;;;;;;4861047;29;20038;-67
2021/10/23 03:08:55;;;;;;;62.88;35.00;;;;;;;;;;4861265;29;20045;-59
2021/10/23 03:11:21;;;;;;;61.15;33.63;;;;;;;;;;4860458;29;20039;-60
2021/10/23 03:13:47;;;;;;;71.90;37.03;;;;;;;;;;4861286;29;20448;-60
2021/10/23 03:16:13;;;;;;;62.40;35.25;;;;;;;;;;4861046;29;20069;-62
2021/10/23 03:18:39;;;;;;;61.50;34.47;;;;;;;;;;4861131;29;20068;-61
2021/10/23 03:21:05;;;;;;;57.80;31.48;;;;;;;;;;4860656;29;20033;-61
2021/10/23 03:23:31;;;;;;;56.95;31.55;;;;;;;;;;4843408;29;20076;-60
2021/10/23 03:25:58;;;;;;;55.17;28.83;;;;;;;;;;4860798;29;20030;-59
2021/10/23 03:28:24;;;;;;;42.85;23.98;;;;;;;;;;4861117;29;20455;-60
2021/10/23 03:30:50;;;;;;;52.75;28.48;;;;;;;;;;4860730;29;20030;-60
2021/10/23 03:33:16;;;;;;;46.15;25.85;;;;;;;;;;4860766;29;20071;-59
2021/10/23 03:35:42;;;;;;;40.38;22.35;;;;;;;;;;4843107;29;20037;-60
2021/10/23 03:38:08;;;;;;;43.88;25.08;;;;;;;;;;4860543;29;20033;-60
2021/10/23 03:40:34;;;;;;;31.88;19.15;;;;;;;;;;4860733;29;20033;-60
2021/10/23 03:43:00;;;;;;;42.28;22.85;;;;;;;;;;4860688;29;20556;-59
2021/10/23 03:45:26;;;;;;;34.53;20.90;;;;;;;;;;4860391;29;20030;-62
2021/10/23 03:47:52;;;;;;;32.38;16.50;;;;;;;;;;4860136;29;20086;-62
2021/10/23 03:50:18;;;;;;;22.73;13.68;;;;;;;;;;4860564;29;20070;-68
2021/10/23 03:52:45;;;;;;;19.13;12.10;;;;;;;;;;4843894;29;20046;-60
2021/10/23 03:55:11;;;;;;;11.65;6.05;;;;;;;;;;4860794;29;20065;-60
2021/10/23 03:57:37;;;;;;;10.65;5.90;;;;;;;;;;4860186;29;20038;-60
2021/10/23 04:00:04;;;;;;;12.90;7.50;;;;;;;;;;4860252;29;20068;-59
2021/10/23 04:02:31;;;;;;;11.15;5.70;;;;;;;;;;4843593;29;20502;-60
2021/10/23 04:04:57;;;;;;;10.57;6.07;;;;;;;;;;4843164;29;20467;-59
2021/10/23 04:07:23;;;;;;;11.73;6.13;;;;;;;;;;4860112;29;20026;-60
2021/10/23 04:09:49;;;;;;;12.52;7.03;;;;;;;;;;4860167;29;20061;-60
2021/10/23 04:12:15;;;;;;;12.30;5.22;;;;;;;;;;4860055;29;20061;-59
2021/10/23 04:14:41;;;;;;;14.85;7.05;;;;;;;;;;4859943;29;20029;-67
2021/10/23 04:17:07;;;;;;;10.70;5.68;;;;;;;;;;4859645;29;20025;-63
2021/10/23 04:19:33;;;;;;;12.93;6.57;;;;;;;;;;4859941;29;20029;-60
2021/10/23 04:22:00;;;;;;;12.55;6.75;;;;;;;;;;4859729;29;20035;-60
2021/10/23 04:24:26;;;;;;;14.10;6.78;;;;;;;;;;4859806;29;20112;-68
2021/10/23 04:26:53;;;;;;;13.52;6.32;;;;;;;;;;4859831;29;20037;-60
2021/10/23 04:29:22;;;;;;;13.02;7.20;;;;;;;;;;4859528;29;20035;-60
2021/10/23 04:31:48;;;;;;;13.57;6.53;;;;;;;;;;4859778;29;20041;-60
2021/10/23 04:34:14;;;;;;;12.38;6.57;;;;;;;;;;4859480;29;20457;-60
2021/10/23 04:36:42;;;;;;;14.38;7.47;;;;;;;;;;4842056;29;20046;-62
2021/10/23 04:39:08;;;;;;;14.05;7.45;;;;;;;;;;4842177;29;20048;-61
2021/10/23 04:41:34;;;;;;;16.00;8.10;;;;;;;;;;4859283;29;20038;-67
2021/10/23 04:44:01;;;;;;;13.10;8.23;;;;;;;;;;4859620;29;20069;-60
2021/10/23 04:46:27;;;;;;;15.63;8.73;;;;;;;;;;4859333;29;20034;-67
2021/10/23 04:48:53;;;;;;;22.20;11.75;;;;;;;;;;4859364;29;20033;-60
2021/10/23 04:51:19;;;;;;;24.98;13.95;;;;;;;;;;4859299;29;20041;-60
2021/10/23 04:53:45;;;;;;;33.25;18.45;;;;;;;;;;4859292;29;20069;-59
2021/10/23 04:56:11;;;;;;;37.20;20.73;;;;;;;;;;4859101;29;20435;-59
2021/10/23 04:58:38;;;;;;;42.95;24.92;;;;;;;;;;4859462;29;20088;-60
2021/10/23 05:01:04;;;;;;;41.10;20.08;;;;;;;;;;4859050;29;20029;-60
2021/10/23 05:03:30;;;;;;;37.03;21.33;;;;;;;;;;4859230;29;20032;-60
2021/10/23 05:05:57;;;;;;;33.22;18.08;;;;;;;;;;4859201;29;20072;-60
2021/10/23 05:08:23;;;;;;;32.75;18.95;;;;;;;;;;4858776;29;20136;-66
2021/10/23 05:10:49;;;;;;;25.77;13.15;;;;;;;;;;4859260;29;20048;-63
2021/10/23 05:13:15;;;;;;;21.05;12.68;;;;;;;;;;4858936;29;20666;-60
2021/10/23 05:15:41;;;;;;;19.98;11.35;;;;;;;;;;4858782;29;20056;-60
2021/10/23 05:18:08;;;;;;;21.73;13.00;;;;;;;;;;4858412;29;20052;-59
2021/10/23 05:20:34;;;;;;;26.23;15.13;;;;;;;;;;4858847;29;20040;-59
2021/10/23 05:23:00;;;;;;;30.83;13.85;;;;;;;;;;4858757;29;20058;-60
2021/10/23 05:25:26;;;;;;;26.40;14.80;;;;;;;;;;4858975;29;20040;-60
2021/10/23 05:27:52;;;;;;;26.65;14.15;;;;;;;;;;4858914;29;20041;-69
2021/10/23 05:30:18;;;;;;;27.67;14.52;;;;;;;;;;4858881;29;20497;-69
2021/10/23 05:32:44;;;;;;;29.13;14.80;;;;;;;;;;4858507;29;20042;-66
2021/10/23 05:35:10;;;;;;;11.88;5.95;;;;;;;;;;4858801;29;20022;-60
2021/10/23 05:37:36;;;;;;;9.90;4.97;;;;;;;;;;4858648;29;20026;-63
2021/10/23 05:40:03;;;;;;;16.05;6.45;;;;;;;;;;4858437;29;20482;-61
2021/10/23 05:42:29;;;;;;;11.75;5.60;;;;;;;;;;4858642;29;20532;-62
2021/10/23 05:44:55;;;;;;;10.10;5.13;;;;;;;;;;4857920;29;20060;-66
2021/10/23 05:47:21;;;;;;;11.43;5.30;;;;;;;;;;4858848;29;20030;-62
2021/10/23 05:49:47;;;;;;;11.30;5.05;;;;;;;;;;4858627;29;20037;-67
2021/10/23 05:52:13;;;;;;;11.38;4.85;;;;;;;;;;4858298;29;20033;-63
2021/10/23 05:54:39;;;;;;;10.07;4.80;;;;;;;;;;4858912;29;20104;-62
2021/10/23 05:57:06;;;;;;;11.55;5.15;;;;;;;;;;4858763;29;20029;-61
2021/10/23 05:59:32;;;;;;;12.05;5.32;;;;;;;;;;4858085;29;20223;-58
2021/10/23 06:02:09;;;;;;;16.65;5.63;;;;;;;;;;4858621;29;20494;-59
2021/10/23 06:04:36;;;;;;;14.98;5.47;;;;;;;;;;4858467;29;20052;-58
2021/10/23 06:07:04;;;;;;;10.27;5.03;;;;;;;;;;4858570;29;20069;-60
2021/10/23 06:09:30;;;;;;;10.48;4.60;;;;;;;;;;4860759;29;20092;-61
2021/10/23 06:12:00;;;;;;;15.00;5.05;;;;;;;;;;4871347;29;20037;-59
2021/10/23 06:14:26;;;;;;;10.00;4.75;;;;;;;;;;4875259;29;20044;-59
2021/10/23 06:16:52;;;;;;;10.63;4.60;;;;;;;;;;4876602;29;20115;-67
2021/10/23 06:19:18;;;;;;;12.10;4.65;;;;;;;;;;4875557;29;20033;-60
2021/10/23 06:21:44;;;;;;;12.40;4.68;;;;;;;;;;4876519;29;20048;-66
2021/10/23 06:24:10;;;;;;;11.23;4.53;;;;;;;;;;4876538;29;20056;-59
2021/10/23 06:26:36;;;;;;;11.85;5.05;;;;;;;;;;4876944;29;20108;-61
2021/10/23 06:29:02;;;;;;;14.10;5.50;;;;;;;;;;4876439;29;20481;-59
2021/10/23 06:31:28;;;;;;;8.90;5.25;;;;;;;;;;4876652;29;20044;-59
2021/10/23 06:33:54;;;;;;;12.30;5.05;;;;;;;;;;4876359;29;20035;-60
2021/10/23 06:36:20;;;;;;;9.82;4.28;;;;;;;;;;4876424;29;20474;-59
2021/10/23 06:38:46;;;;;;;11.38;4.18;;;;;;;;;;4873237;29;20033;-60
2021/10/23 06:41:12;;;;;;;7.82;4.05;;;;;;;;;;4858227;29;20041;-67
2021/10/23 06:43:39;;;;;;;9.68;3.78;;;;;;;;;;4858182;29;20039;-60
2021/10/23 06:46:05;;;;;;;7.63;4.03;;;;;;;;;;4858076;29;20030;-60
2021/10/23 06:48:31;;;;;;;10.57;3.90;;;;;;;;;;4840454;29;20038;-62
2021/10/23 06:50:57;;;;;;;12.18;3.25;;;;;;;;;;4857879;29;20037;-67
2021/10/23 06:53:23;;;;;;;9.52;4.63;;;;;;;;;;4857994;29;20049;-60
2021/10/23 06:55:49;;;;;;;7.95;3.47;;;;;;;;;;4857557;29;20068;-61
2021/10/23 06:58:15;;;;;;;11.65;4.40;;;;;;;;;;4860324;29;20435;-59
2021/10/23 07:00:41;;;;;;;14.70;5.03;;;;;;;;;;4861385;29;20492;-60
2021/10/23 07:03:07;;;;;;;11.77;4.03;;;;;;;;;;4861003;29;20029;-59
2021/10/23 07:05:33;;;;;;;8.02;3.25;;;;;;;;;;4861232;29;20102;-59
2021/10/23 07:07:59;;;;;;;12.60;3.47;;;;;;;;;;4860828;29;20037;-59
2021/10/23 07:10:26;;;;;;;11.88;3.60;;;;;;;;;;4860940;29;20030;-61
2021/10/23 07:12:52;;;;;;;10.75;4.10;;;;;;;;;;4869011;29;20025;-62
2021/10/23 07:15:18;;;;;;;7.65;3.20;;;;;;;;;;4866807;29;20032;-59
2021/10/23 07:17:44;;;;;;;9.52;3.80;;;;;;;;;;4869252;29;20041;-60
2021/10/23 07:20:11;;;;;;;9.77;3.60;;;;;;;;;;4874686;29;20029;-60
2021/10/23 07:22:37;;;;;;;10.98;3.70;;;;;;;;;;4875578;29;20056;-68
2021/10/23 07:25:04;;;;;;;10.05;4.47;;;;;;;;;;4856483;29;20434;-59
2021/10/23 07:27:30;;;;;;;15.38;4.65;;;;;;;;;;4860913;29;20033;-68
2021/10/23 07:29:57;;;;;;;11.00;4.22;;;;;;;;;;4860194;29;20068;-67
2021/10/23 07:32:23;;;;;;;10.60;4.35;;;;;;;;;;4860551;29;20065;-57
2021/10/23 07:34:49;;;;;;;10.60;3.80;;;;;;;;;;4860665;29;20036;-60
2021/10/23 07:37:15;;;;;;;12.73;3.92;;;;;;;;;;4860554;29;20037;-58
2021/10/23 07:39:41;;;;;;;11.80;4.38;;;;;;;;;;4860917;29;20375;-59
2021/10/23 07:42:08;;;;;;;11.68;3.50;;;;;;;;;;4860325;29;20037;-64
2021/10/23 07:44:34;;;;;;;9.18;2.65;;;;;;;;;;4860726;29;20104;-59
2021/10/23 07:47:00;;;;;;;10.90;3.17;;;;;;;;;;4851531;29;20050;-67
2021/10/23 07:49:26;;;;;;;9.73;3.35;;;;;;;;;;4841873;29;20038;-65
2021/10/23 07:51:52;;;;;;;8.65;3.50;;;;;;;;;;4841399;29;20061;-60
2021/10/23 07:54:18;;;;;;;8.88;3.25;;;;;;;;;;4841786;29;20120;-64
2021/10/23 07:56:44;;;;;;;14.43;3.03;;;;;;;;;;4856578;29;20037;-62
2021/10/23 07:59:11;;;;;;;10.90;3.53;;;;;;;;;;4859719;29;20561;-58
2021/10/23 08:01:37;;;;;;;9.35;3.72;;;;;;;;;;4860330;29;20034;-62
2021/10/23 08:04:03;;;;;;;12.27;5.22;;;;;;;;;;4860369;29;20151;-60
2021/10/23 08:06:29;;;;;;;12.05;5.50;;;;;;;;;;4859737;29;20057;-61
2021/10/23 08:08:55;;;;;;;14.85;4.68;;;;;;;;;;4859392;29;20032;-61
2021/10/23 08:11:22;;;;;;;13.55;4.80;;;;;;;;;;4860005;29;20037;-60
2021/10/23 08:13:48;;;;;;;13.02;4.43;;;;;;;;;;4860021;29;20034;-62
2021/10/23 08:16:15;;;;;;;12.85;5.40;;;;;;;;;;4852083;29;20056;-66
2021/10/23 08:18:41;;;;;;;10.60;4.80;;;;;;;;;;4857009;29;20085;-65
2021/10/23 08:21:07;;;;;;;12.30;4.15;;;;;;;;;;4859708;29;20025;-65
2021/10/23 08:23:33;;;;;;;10.32;3.75;;;;;;;;;;4859771;29;20101;-66
2021/10/23 08:25:59;;;;;;;13.20;4.22;;;;;;;;;;4865814;29;20127;-65
2021/10/23 08:28:25;;;;;;;11.65;4.40;;;;;;;;;;4868797;29;20038;-67
2021/10/23 08:30:51;;;;;;;11.20;4.05;;;;;;;;;;4859011;29;20029;-67
2021/10/23 08:33:18;;;;;;;11.13;4.13;;;;;;;;;;4859128;29;20077;-67
2021/10/23 08:35:44;;;;;;;11.60;3.90;;;;;;;;;;4862459;29;20040;-61
2021/10/23 08:38:10;;;;;;;13.52;4.22;;;;;;;;;;4867136;29;20025;-60
2021/10/23 08:40:36;;;;;;;10.73;4.10;;;;;;;;;;4868388;29;20029;-61
2021/10/23 08:43:04;;;;;;;11.63;3.95;;;;;;;;;;4866694;29;20026;-60
2021/10/23 08:45:30;;;;;;;9.52;3.15;;;;;;;;;;4866635;29;20021;-63
2021/10/23 08:47:59;;;;;;;10.02;3.80;;;;;;;;;;4868112;29;20060;-67
2021/10/23 08:50:25;;;;;;;11.30;3.83;;;;;;;;;;4865932;29;20033;-61
2021/10/23 08:53:00;;;;;;;11.02;4.18;;;;;;;;;;4868072;29;20072;-62
2021/10/23 08:55:26;;;;;;;9.82;4.88;;;;;;;;;;4866205;29;20120;-65
2021/10/23 08:57:52;;;;;;;15.77;3.88;;;;;;;;;;4867590;29;20029;-60
2021/10/23 09:00:18;;;;;;;14.23;4.38;;;;;;;;;;4864702;29;20038;-66
2021/10/23 09:02:44;;;;;;;12.25;3.60;;;;;;;;;;4866744;29;20541;-67
2021/10/23 09:05:10;;;;;;;8.88;3.97;;;;;;;;;;4867772;29;20450;-63
2021/10/23 09:07:50;;;;;;;8.60;4.03;;;;;;;;;;4866155;29;20097;-63
2021/10/23 09:10:27;;;;;;;12.32;4.03;;;;;;;;;;4867386;29;20029;-63
2021/10/23 09:13:02;;;;;;;14.30;4.50;;;;;;;;;;4867348;29;20813;-63
2021/10/23 09:15:31;;;;;;;10.02;4.22;;;;;;;;;;4863673;29;20040;-61
2021/10/23 09:17:58;;;;;;;11.32;4.40;;;;;;;;;;4866786;29;20041;-61
2021/10/23 09:20:24;;;;;;;11.20;4.60;;;;;;;;;;4864854;29;20021;-67
2021/10/23 09:22:52;;;;;;;9.45;4.47;;;;;;;;;;4862884;29;20119;-67
2021/10/23 09:25:27;;;;;;;11.65;4.78;;;;;;;;;;4864452;29;20589;-67
2021/10/23 09:28:11;;;;;;;12.38;4.65;;;;;;;;;;4864130;29;20033;-67
2021/10/23 09:30:38;;;;;;;12.95;4.82;;;;;;;;;;4864993;29;20021;-61
2021/10/23 09:33:05;;;;;;;12.60;5.25;;;;;;;;;;4864143;29;20409;-60
2021/10/23 09:35:32;;;;;;;15.50;5.63;;;;;;;;;;4866326;29;20104;-67
2021/10/23 09:37:59;;;;;;;14.15;4.60;;;;;;;;;;4867022;29;20060;-62
2021/10/23 09:40:26;;;;;;;12.05;5.00;;;;;;;;;;4866541;29;20029;-64
2021/10/23 09:43:11;;;;;;;10.88;4.60;;;;;;;;;;4866855;29;20025;-70
2021/10/23 09:46:00;;;;;;;10.40;4.32;;;;;;;;;;4866026;29;20036;-62
2021/10/23 09:48:41;;;;;;;13.75;4.45;;;;;;;;;;4863067;29;20111;-61
2021/10/23 09:51:20;;;;;;;8.18;3.58;;;;;;;;;;4858486;29;20041;-68
2021/10/23 09:53:48;;;;;;;9.90;3.47;;;;;;;;;;4858537;29;20053;-70
2021/10/23 09:56:15;;;;;;;11.60;3.90;;;;;;;;;;4858662;29;20030;-67
2021/10/23 09:59:01;;;;;;;11.15;4.00;;;;;;;;;;4858657;29;20840;-65
2021/10/23 10:01:31;;;;;;;9.63;3.63;;;;;;;;;;4858622;29;20034;-64
2021/10/23 10:03:58;;;;;;;10.52;3.70;;;;;;;;;;4858357;29;20025;-62
2021/10/23 10:06:26;;;;;;;11.93;4.07;;;;;;;;;;4858332;29;20037;-67
2021/10/23 10:08:52;;;;;;;7.35;3.40;;;;;;;;;;4859877;29;20039;-61
2021/10/23 10:11:19;;;;;;;10.65;3.65;;;;;;;;;;4867490;29;20278;-68
2021/10/23 10:13:46;;;;;;;7.53;2.80;;;;;;;;;;4862674;29;20425;-61
2021/10/23 10:16:14;;;;;;;10.43;3.80;;;;;;;;;;4858616;29;20026;-68
2021/10/23 10:18:42;;;;;;;7.70;3.70;;;;;;;;;;4858268;29;20393;-63
2021/10/23 10:21:09;;;;;;;15.63;4.70;;;;;;;;;;4857856;29;20393;-61
2021/10/23 10:23:42;;;;;;;11.75;4.05;;;;;;;;;;4858149;29;20549;-70
2021/10/23 10:26:27;;;;;;;8.02;3.78;;;;;;;;;;4858290;29;20056;-72
2021/10/23 10:29:15;;;;;;;11.02;4.20;;;;;;;;;;4857896;29;20025;-60
2021/10/23 10:31:53;;;;;;;11.07;3.92;;;;;;;;;;4868660;29;20025;-64
2021/10/23 10:34:39;;;;;;;13.90;3.65;;;;;;;;;;4868974;29;20417;-65
2021/10/23 10:39:57;;;;;;;12.45;3.50;;;;;;;;;;4868455;29;20041;-70
2021/10/23 10:42:50;;;;;;;9.30;2.78;;;;;;;;;;4868876;29;20052;-64
2021/10/23 10:45:25;;;;;;;10.25;3.30;;;;;;;;;;4877481;29;20124;-60
2021/10/23 10:48:10;;;;;;;9.82;2.95;;;;;;;;;;4880131;29;20036;-69
2021/10/23 10:50:41;;;;;;;6.38;2.55;;;;;;;;;;4879789;29;20393;-70
2021/10/23 10:53:16;;;;;;;11.27;3.42;;;;;;;;;;4880149;29;20143;-65
2021/10/23 10:55:44;;;;;;;8.63;2.90;;;;;;;;;;4879912;29;20025;-67
2021/10/23 10:58:10;;;;;;;7.32;3.08;;;;;;;;;;4872735;29;20036;-64
2021/10/23 11:01:02;;;;;;;9.85;2.97;;;;;;;;;;4868874;29;20480;-60
2021/10/23 11:03:36;;;;;;;9.32;3.60;;;;;;;;;;4866852;29;20060;-71
2021/10/23 11:06:21;;;;;;;12.38;3.63;;;;;;;;;;4870099;29;20587;-61
2021/10/23 11:08:47;;;;;;;10.73;3.78;;;;;;;;;;4852601;29;20048;-61
2021/10/23 11:11:13;;;;;;;8.57;3.63;;;;;;;;;;4860861;29;20037;-64
2021/10/23 11:13:44;;;;;;;12.20;4.68;;;;;;;;;;4864751;29;20052;-59
2021/10/23 11:16:23;;;;;;;14.23;5.00;;;;;;;;;;4872169;29;20036;-66
2021/10/23 11:18:57;;;;;;;11.38;4.25;;;;;;;;;;4867803;29;20064;-72
2021/10/23 11:21:24;;;;;;;11.23;5.10;;;;;;;;;;4865032;29;20033;-65
2021/10/23 11:23:54;;;;;;;11.93;4.63;;;;;;;;;;4868322;29;20480;-65
2021/10/23 11:26:20;;;;;;;13.82;4.97;;;;;;;;;;4870480;29;20518;-62
2021/10/23 11:28:47;;;;;;;8.43;4.32;;;;;;;;;;4875759;29;20033;-63
2021/10/23 11:31:19;;;;;;;11.35;5.22;;;;;;;;;;4862044;29;20057;-66
2021/10/23 11:33:45;;;;;;;10.90;5.55;;;;;;;;;;4867597;29;20037;-64
2021/10/23 11:36:16;;;;;;;11.90;5.47;;;;;;;;;;4860053;29;20025;-68
2021/10/23 11:38:46;;;;;;;11.38;5.43;;;;;;;;;;4873752;29;20040;-65
2021/10/23 11:41:12;;;;;;;11.32;5.57;;;;;;;;;;4863416;29;20053;-60
2021/10/23 11:43:39;;;;;;;13.77;6.40;;;;;;;;;;4868870;29;20033;-65
2021/10/23 11:46:06;;;;;;;12.05;5.32;;;;;;;;;;4871651;29;20507;-58
2021/10/23 11:48:32;;;;;;;9.85;5.22;;;;;;;;;;4870914;29;20501;-67
2021/10/23 11:50:58;;;;;;;11.10;5.35;;;;;;;;;;4867051;29;20047;-67
2021/10/23 11:53:30;;;;;;;11.63;4.80;;;;;;;;;;4848413;29;20585;-70
2021/10/23 11:56:03;;;;;;;11.80;5.40;;;;;;;;;;4867044;29;20042;-67
2021/10/23 11:58:30;;;;;;;19.63;7.90;;;;;;;;;;4873139;29;20584;-67
2021/10/23 12:01:01;;;;;;;20.75;5.80;;;;;;;;;;4867122;29;20060;-64
2021/10/23 12:03:29;;;;;;;11.98;5.53;;;;;;;;;;4863360;29;20051;-65
2021/10/23 12:05:56;;;;;;;12.98;5.20;;;;;;;;;;4874912;29;20062;-69
2021/10/23 12:08:29;;;;;;;15.07;5.40;;;;;;;;;;4878341;29;20037;-66
2021/10/23 12:11:17;;;;;;;14.82;5.13;;;;;;;;;;4878533;29;20084;-63
2021/10/23 12:13:42;;;;;;;16.15;5.15;;;;;;;;;;4878365;29;20037;-71
2021/10/23 12:16:11;;;;;;;12.65;5.15;;;;;;;;;;4878609;29;20040;-66
2021/10/23 12:18:38;;;;;;;11.27;4.85;;;;;;;;;;4878633;29;20040;-70
2021/10/23 12:21:13;;;;;;;14.95;5.90;;;;;;;;;;4878049;29;20132;-65
2021/10/23 12:23:53;;;;;;;13.18;5.78;;;;;;;;;;4878239;29;20059;-64
2021/10/23 12:26:23;;;;;;;12.27;5.28;;;;;;;;;;4878009;29;20068;-63
2021/10/23 12:28:58;;;;;;;10.05;5.38;;;;;;;;;;4878184;29;20507;-61
2021/10/23 12:31:25;;;;;;;13.23;5.97;;;;;;;;;;4861652;29;20060;-71
2021/10/23 12:34:04;;;;;;;12.55;5.50;;;;;;;;;;4867314;29;20081;-69
2021/10/23 12:36:30;;;;;;;14.18;5.60;;;;;;;;;;4865456;29;20036;-62
2021/10/23 12:38:57;;;;;;;12.13;5.30;;;;;;;;;;4866126;29;20449;-59
2021/10/23 12:41:23;;;;;;;10.82;4.57;;;;;;;;;;4867360;29;20252;-62
2021/10/23 12:43:49;;;;;;;10.20;4.10;;;;;;;;;;4874485;29;20033;-67
2021/10/23 12:46:16;;;;;;;14.65;5.03;;;;;;;;;;4877827;29;20120;-67
2021/10/23 12:48:42;;;;;;;11.93;5.25;;;;;;;;;;4875092;29;20025;-65
2021/10/23 12:51:08;;;;;;;16.48;5.35;;;;;;;;;;4863361;29;20036;-69
2021/10/23 12:53:34;;;;;;;13.73;5.25;;;;;;;;;;4859222;29;20040;-68
2021/10/23 12:56:00;;;;;;;12.90;5.63;;;;;;;;;;4866301;29;20033;-62
2021/10/23 12:58:26;;;;;;;11.40;4.60;;;;;;;;;;4862293;29;20048;-69
2021/10/23 13:00:53;;;;;;;7.63;3.88;;;;;;;;;;4858117;29;20029;-67
2021/10/23 13:03:19;;;;;;;11.57;4.72;;;;;;;;;;4858565;29;20555;-67
2021/10/23 13:05:45;;;;;;;16.85;5.03;;;;;;;;;;4859270;29;20478;-68
2021/10/23 13:08:11;;;;;;;12.90;4.63;;;;;;;;;;4858915;29;20053;-66
2021/10/23 13:10:37;;;;;;;9.35;4.47;;;;;;;;;;4858934;29;20551;-69
2021/10/23 13:13:03;;;;;;;14.52;4.28;;;;;;;;;;4858934;29;20047;-61
2021/10/23 13:15:29;;;;;;;15.13;5.15;;;;;;;;;;4859078;29;20478;-66
2021/10/23 13:17:55;;;;;;;11.68;5.30;;;;;;;;;;4858848;29;20471;-68
2021/10/23 13:20:21;;;;;;;10.70;4.53;;;;;;;;;;4858748;29;20037;-62
2021/10/23 13:22:48;;;;;;;13.65;5.68;;;;;;;;;;4858742;29;20560;-64
2021/10/23 13:25:16;;;;;;;13.20;5.60;;;;;;;;;;4859033;29;20045;-67
2021/10/23 13:27:42;;;;;;;10.60;5.05;;;;;;;;;;4859042;29;20046;-68
2021/10/23 13:30:09;;;;;;;11.48;5.03;;;;;;;;;;4858835;29;20055;-63
2021/10/23 13:32:36;;;;;;;10.68;5.03;;;;;;;;;;4859033;29;20033;-65
2021/10/23 13:35:02;;;;;;;11.05;5.20;;;;;;;;;;4858925;29;20105;-61
2021/10/23 13:37:28;;;;;;;10.15;5.00;;;;;;;;;;4858935;29;20029;-62
2021/10/23 13:39:54;;;;;;;13.88;5.88;;;;;;;;;;4858972;29;20493;-62
2021/10/23 13:42:20;;;;;;;11.52;5.32;;;;;;;;;;4858807;29;20032;-67
2021/10/23 13:44:49;;;;;;;12.82;6.43;;;;;;;;;;4858791;29;20033;-64
2021/10/23 13:47:16;;;;;;;16.45;7.43;;;;;;;;;;4858980;29;20364;-65
2021/10/23 13:49:42;;;;;;;16.23;7.65;;;;;;;;;;4858647;29;20033;-68
2021/10/23 13:52:08;;;;;;;14.93;6.43;;;;;;;;;;4858529;29;20032;-68
2021/10/23 13:54:34;;;;;;;16.50;6.63;;;;;;;;;;4858618;29;20071;-63
2021/10/23 13:57:01;;;;;;;14.70;5.78;;;;;;;;;;4858992;29;20025;-62
2021/10/23 13:59:27;;;;;;;14.02;5.40;;;;;;;;;;4857163;29;20061;-64
2021/10/23 14:01:54;;;;;;;17.10;6.75;;;;;;;;;;4858710;29;20032;-60
2021/10/23 14:04:20;;;;;;;14.18;5.88;;;;;;;;;;4858594;29;20510;-65
2021/10/23 14:06:46;;;;;;;12.70;5.30;;;;;;;;;;4860942;29;20033;-67
2021/10/23 14:09:12;;;;;;;17.77;6.18;;;;;;;;;;4862454;29;20386;-61
2021/10/23 14:11:38;;;;;;;14.38;5.30;;;;;;;;;;4862043;29;20096;-62
2021/10/23 14:14:04;;;;;;;14.50;5.82;;;;;;;;;;4860948;29;20045;-67
2021/10/23 14:16:31;;;;;;;12.43;5.47;;;;;;;;;;4862344;29;20109;-65
2021/10/23 14:18:57;;;;;;;15.20;6.72;;;;;;;;;;4862198;29;20386;-66
2021/10/23 14:21:23;;;;;;;13.85;6.35;;;;;;;;;;4862055;29;20033;-66
2021/10/23 14:23:50;;;;;;;16.23;6.75;;;;;;;;;;4861815;29;20053;-67
2021/10/23 14:26:18;;;;;;;16.02;6.82;;;;;;;;;;4861848;29;20505;-68
2021/10/23 14:28:45;;;;;;;13.98;5.90;;;;;;;;;;4861526;29;20028;-60
2021/10/23 14:31:12;;;;;;;13.25;6.38;;;;;;;;;;4861679;29;20026;-62